sensor_id;sensor_type;location;lat;lon;timestamp;P1;durP1;ratioP1;P2;durP2;ratioP2
11414;SDS011;5763;42.714;23.244;2023-07-20T00:01:50;8.30;;;2.22;;
11414;SDS011;5763;42.714;23.244;2023-07-20T00:04:17;5.65;;;2.42;;
11414;SDS011;5763;42.714;23.244;2023-07-20T00:06:45;4.13;;;2.40;;
11414;SDS011;5763;42.714;23.244;2023-07-20T00:09:12;5.13;;;2.30;;
11414;SDS011;5763;42.714;23.244;2023-07-20T00:11:38;4.82;;;2.42;;
11414;SDS011;5763;42.714;23.244;2023-07-20T00:14:05;4.35;;;2.47;;
11414;SDS011;5763;42.714;23.244;2023-07-20T00:16:32;7.03;;;2.42;;
11414;SDS011;5763;42.714;23.244;2023-07-20T00:19:00;8.50;;;2.75;;
11414;SDS011;5763;42.714;23.244;2023-07-20T00:21:26;4.43;;;2.13;;
11414;SDS011;5763;42.714;23.244;2023-07-20T00:23:55;5.05;;;2.30;;
11414;SDS011;5763;42.714;23.244;2023-07-20T00:26:21;5.95;;;2.70;;
11414;SDS011;5763;42.714;23.244;2023-07-20T00:28:49;4.88;;;2.00;;
11414;SDS011;5763;42.714;23.244;2023-07-20T00:31:16;4.70;;;2.30;;
11414;SDS011;5763;42.714;23.244;2023-07-20T00:33:43;5.75;;;2.33;;
11414;SDS011;5763;42.714;23.244;2023-07-20T00:36:10;5.93;;;2.42;;
11414;SDS011;5763;42.714;23.244;2023-07-20T00:38:37;5.28;;;2.50;;
11414;SDS011;5763;42.714;23.244;2023-07-20T00:41:05;3.97;;;2.40;;
11414;SDS011;5763;42.714;23.244;2023-07-20T00:43:32;6.45;;;2.58;;
11414;SDS011;5763;42.714;23.244;2023-07-20T00:45:59;7.40;;;2.60;;
11414;SDS011;5763;42.714;23.244;2023-07-20T00:48:27;4.13;;;2.38;;
11414;SDS011;5763;42.714;23.244;2023-07-20T00:50:55;4.95;;;2.63;;
11414;SDS011;5763;42.714;23.244;2023-07-20T00:53:22;6.30;;;2.30;;
11414;SDS011;5763;42.714;23.244;2023-07-20T00:55:49;5.00;;;2.55;;
11414;SDS011;5763;42.714;23.244;2023-07-20T00:58:17;5.13;;;2.50;;
11414;SDS011;5763;42.714;23.244;2023-07-20T01:00:44;4.28;;;2.53;;
11414;SDS011;5763;42.714;23.244;2023-07-20T01:03:12;6.05;;;2.38;;
11414;SDS011;5763;42.714;23.244;2023-07-20T01:05:40;6.97;;;2.70;;
11414;SDS011;5763;42.714;23.244;2023-07-20T01:08:15;7.75;;;2.42;;
11414;SDS011;5763;42.714;23.244;2023-07-20T01:10:50;6.72;;;2.88;;
11414;SDS011;5763;42.714;23.244;2023-07-20T01:13:22;4.20;;;2.67;;
11414;SDS011;5763;42.714;23.244;2023-07-20T01:15:49;6.93;;;2.67;;
11414;SDS011;5763;42.714;23.244;2023-07-20T01:18:17;7.05;;;2.85;;
11414;SDS011;5763;42.714;23.244;2023-07-20T01:20:44;7.53;;;2.63;;
11414;SDS011;5763;42.714;23.244;2023-07-20T01:23:22;3.40;;;2.38;;
11414;SDS011;5763;42.714;23.244;2023-07-20T01:26:07;6.68;;;3.15;;
11414;SDS011;5763;42.714;23.244;2023-07-20T01:28:48;6.65;;;2.67;;
11414;SDS011;5763;42.714;23.244;2023-07-20T01:31:27;5.22;;;2.42;;
11414;SDS011;5763;42.714;23.244;2023-07-20T01:33:56;7.35;;;3.03;;
11414;SDS011;5763;42.714;23.244;2023-07-20T01:36:24;6.78;;;2.67;;
11414;SDS011;5763;42.714;23.244;2023-07-20T01:38:54;5.95;;;2.38;;
11414;SDS011;5763;42.714;23.244;2023-07-20T01:41:22;8.10;;;2.67;;
11414;SDS011;5763;42.714;23.244;2023-07-20T01:43:49;3.75;;;2.55;;
11414;SDS011;5763;42.714;23.244;2023-07-20T01:46:16;5.28;;;2.63;;
11414;SDS011;5763;42.714;23.244;2023-07-20T01:48:45;4.72;;;2.80;;
11414;SDS011;5763;42.714;23.244;2023-07-20T01:51:12;8.50;;;3.03;;
11414;SDS011;5763;42.714;23.244;2023-07-20T01:53:39;5.13;;;2.35;;
11414;SDS011;5763;42.714;23.244;2023-07-20T01:56:05;5.85;;;2.97;;
11414;SDS011;5763;42.714;23.244;2023-07-20T01:58:32;5.30;;;2.60;;
11414;SDS011;5763;42.714;23.244;2023-07-20T02:01:00;4.93;;;2.53;;
11414;SDS011;5763;42.714;23.244;2023-07-20T02:03:27;7.75;;;2.90;;
11414;SDS011;5763;42.714;23.244;2023-07-20T02:05:55;7.38;;;2.63;;
11414;SDS011;5763;42.714;23.244;2023-07-20T02:08:22;8.88;;;2.95;;
11414;SDS011;5763;42.714;23.244;2023-07-20T02:10:49;5.30;;;2.60;;
11414;SDS011;5763;42.714;23.244;2023-07-20T02:13:17;9.68;;;3.60;;
11414;SDS011;5763;42.714;23.244;2023-07-20T02:15:44;6.03;;;2.85;;
11414;SDS011;5763;42.714;23.244;2023-07-20T02:18:12;6.40;;;2.40;;
11414;SDS011;5763;42.714;23.244;2023-07-20T02:20:40;9.27;;;2.88;;
11414;SDS011;5763;42.714;23.244;2023-07-20T02:23:10;8.18;;;2.60;;
11414;SDS011;5763;42.714;23.244;2023-07-20T02:25:36;6.75;;;2.78;;
11414;SDS011;5763;42.714;23.244;2023-07-20T02:28:04;6.07;;;3.28;;
11414;SDS011;5763;42.714;23.244;2023-07-20T02:30:30;6.75;;;2.92;;
11414;SDS011;5763;42.714;23.244;2023-07-20T02:32:57;6.25;;;2.20;;
11414;SDS011;5763;42.714;23.244;2023-07-20T02:35:24;6.03;;;2.55;;
11414;SDS011;5763;42.714;23.244;2023-07-20T02:37:51;6.80;;;3.35;;
11414;SDS011;5763;42.714;23.244;2023-07-20T02:40:19;8.13;;;3.33;;
11414;SDS011;5763;42.714;23.244;2023-07-20T02:42:46;7.78;;;3.17;;
11414;SDS011;5763;42.714;23.244;2023-07-20T02:45:13;8.35;;;4.07;;
11414;SDS011;5763;42.714;23.244;2023-07-20T02:47:40;12.63;;;7.20;;
11414;SDS011;5763;42.714;23.244;2023-07-20T02:50:07;6.85;;;3.50;;
11414;SDS011;5763;42.714;23.244;2023-07-20T02:52:34;6.30;;;3.05;;
11414;SDS011;5763;42.714;23.244;2023-07-20T02:55:01;5.43;;;2.85;;
11414;SDS011;5763;42.714;23.244;2023-07-20T02:57:30;5.35;;;3.17;;
11414;SDS011;5763;42.714;23.244;2023-07-20T02:59:56;5.82;;;2.92;;
11414;SDS011;5763;42.714;23.244;2023-07-20T03:02:23;6.60;;;3.55;;
11414;SDS011;5763;42.714;23.244;2023-07-20T03:04:50;7.20;;;2.95;;
11414;SDS011;5763;42.714;23.244;2023-07-20T03:07:17;5.10;;;2.80;;
11414;SDS011;5763;42.714;23.244;2023-07-20T03:09:43;8.93;;;3.20;;
11414;SDS011;5763;42.714;23.244;2023-07-20T03:12:10;7.15;;;3.53;;
11414;SDS011;5763;42.714;23.244;2023-07-20T03:14:38;7.13;;;2.83;;
11414;SDS011;5763;42.714;23.244;2023-07-20T03:17:05;4.93;;;2.75;;
11414;SDS011;5763;42.714;23.244;2023-07-20T03:19:33;6.70;;;2.75;;
11414;SDS011;5763;42.714;23.244;2023-07-20T03:22:00;9.02;;;3.60;;
11414;SDS011;5763;42.714;23.244;2023-07-20T03:24:27;11.73;;;4.70;;
11414;SDS011;5763;42.714;23.244;2023-07-20T03:26:53;9.70;;;3.17;;
11414;SDS011;5763;42.714;23.244;2023-07-20T03:29:20;5.05;;;2.65;;
11414;SDS011;5763;42.714;23.244;2023-07-20T03:31:48;7.32;;;3.10;;
11414;SDS011;5763;42.714;23.244;2023-07-20T03:34:15;7.60;;;3.10;;
11414;SDS011;5763;42.714;23.244;2023-07-20T03:36:42;9.77;;;2.72;;
11414;SDS011;5763;42.714;23.244;2023-07-20T03:39:09;8.07;;;5.13;;
11414;SDS011;5763;42.714;23.244;2023-07-20T03:41:35;6.95;;;3.38;;
11414;SDS011;5763;42.714;23.244;2023-07-20T03:44:02;10.90;;;3.30;;
11414;SDS011;5763;42.714;23.244;2023-07-20T03:46:30;7.70;;;3.00;;
11414;SDS011;5763;42.714;23.244;2023-07-20T03:49:00;8.75;;;3.25;;
11414;SDS011;5763;42.714;23.244;2023-07-20T03:51:27;5.68;;;2.80;;
11414;SDS011;5763;42.714;23.244;2023-07-20T03:53:54;6.93;;;2.70;;
11414;SDS011;5763;42.714;23.244;2023-07-20T03:56:21;12.25;;;3.42;;
11414;SDS011;5763;42.714;23.244;2023-07-20T03:58:48;7.38;;;3.60;;
11414;SDS011;5763;42.714;23.244;2023-07-20T04:01:15;7.55;;;3.20;;
11414;SDS011;5763;42.714;23.244;2023-07-20T04:03:42;7.40;;;3.03;;
11414;SDS011;5763;42.714;23.244;2023-07-20T04:06:10;9.93;;;3.40;;
11414;SDS011;5763;42.714;23.244;2023-07-20T04:08:37;8.05;;;3.17;;
11414;SDS011;5763;42.714;23.244;2023-07-20T04:11:04;9.02;;;3.45;;
11414;SDS011;5763;42.714;23.244;2023-07-20T04:13:31;7.70;;;3.33;;
11414;SDS011;5763;42.714;23.244;2023-07-20T04:15:59;7.40;;;3.42;;
11414;SDS011;5763;42.714;23.244;2023-07-20T04:18:27;7.20;;;3.25;;
11414;SDS011;5763;42.714;23.244;2023-07-20T04:20:54;9.55;;;3.47;;
11414;SDS011;5763;42.714;23.244;2023-07-20T04:23:22;9.75;;;3.55;;
11414;SDS011;5763;42.714;23.244;2023-07-20T04:25:49;11.10;;;3.70;;
11414;SDS011;5763;42.714;23.244;2023-07-20T04:28:15;7.88;;;3.33;;
11414;SDS011;5763;42.714;23.244;2023-07-20T04:30:42;11.35;;;4.47;;
11414;SDS011;5763;42.714;23.244;2023-07-20T04:33:09;8.80;;;3.63;;
11414;SDS011;5763;42.714;23.244;2023-07-20T04:35:45;8.13;;;3.90;;
11414;SDS011;5763;42.714;23.244;2023-07-20T04:38:13;8.70;;;3.95;;
11414;SDS011;5763;42.714;23.244;2023-07-20T04:40:42;8.00;;;3.40;;
11414;SDS011;5763;42.714;23.244;2023-07-20T04:43:08;8.50;;;3.60;;
11414;SDS011;5763;42.714;23.244;2023-07-20T04:45:35;8.18;;;3.72;;
11414;SDS011;5763;42.714;23.244;2023-07-20T04:48:02;10.18;;;5.07;;
11414;SDS011;5763;42.714;23.244;2023-07-20T04:50:29;8.85;;;4.68;;
11414;SDS011;5763;42.714;23.244;2023-07-20T04:52:56;10.30;;;4.57;;
11414;SDS011;5763;42.714;23.244;2023-07-20T04:55:22;11.20;;;5.20;;
11414;SDS011;5763;42.714;23.244;2023-07-20T04:57:50;9.43;;;4.85;;
11414;SDS011;5763;42.714;23.244;2023-07-20T05:00:17;6.57;;;3.88;;
11414;SDS011;5763;42.714;23.244;2023-07-20T05:02:45;7.05;;;3.67;;
11414;SDS011;5763;42.714;23.244;2023-07-20T05:05:12;9.05;;;3.63;;
11414;SDS011;5763;42.714;23.244;2023-07-20T05:07:39;10.43;;;4.30;;
11414;SDS011;5763;42.714;23.244;2023-07-20T05:10:06;7.22;;;3.67;;
11414;SDS011;5763;42.714;23.244;2023-07-20T05:12:33;9.90;;;4.05;;
11414;SDS011;5763;42.714;23.244;2023-07-20T05:15:01;12.02;;;4.25;;
11414;SDS011;5763;42.714;23.244;2023-07-20T05:17:28;9.05;;;4.13;;
11414;SDS011;5763;42.714;23.244;2023-07-20T05:19:55;10.23;;;4.50;;
11414;SDS011;5763;42.714;23.244;2023-07-20T05:22:22;8.45;;;4.22;;
11414;SDS011;5763;42.714;23.244;2023-07-20T05:24:49;7.60;;;4.45;;
11414;SDS011;5763;42.714;23.244;2023-07-20T05:27:16;13.30;;;5.00;;
11414;SDS011;5763;42.714;23.244;2023-07-20T05:29:43;10.07;;;4.40;;
11414;SDS011;5763;42.714;23.244;2023-07-20T05:32:12;14.00;;;4.72;;
11414;SDS011;5763;42.714;23.244;2023-07-20T05:34:39;10.75;;;4.65;;
11414;SDS011;5763;42.714;23.244;2023-07-20T05:37:09;7.65;;;4.43;;
11414;SDS011;5763;42.714;23.244;2023-07-20T05:39:35;10.80;;;5.25;;
11414;SDS011;5763;42.714;23.244;2023-07-20T05:42:02;13.75;;;5.80;;
11414;SDS011;5763;42.714;23.244;2023-07-20T05:44:29;12.75;;;6.93;;
11414;SDS011;5763;42.714;23.244;2023-07-20T05:46:56;10.75;;;7.15;;
11414;SDS011;5763;42.714;23.244;2023-07-20T05:49:25;11.05;;;6.57;;
11414;SDS011;5763;42.714;23.244;2023-07-20T05:51:51;10.77;;;5.50;;
11414;SDS011;5763;42.714;23.244;2023-07-20T05:54:18;11.68;;;5.70;;
11414;SDS011;5763;42.714;23.244;2023-07-20T05:56:45;8.35;;;5.30;;
11414;SDS011;5763;42.714;23.244;2023-07-20T05:59:12;14.20;;;4.97;;
11414;SDS011;5763;42.714;23.244;2023-07-20T06:01:39;10.25;;;4.70;;
11414;SDS011;5763;42.714;23.244;2023-07-20T06:04:06;10.18;;;5.00;;
11414;SDS011;5763;42.714;23.244;2023-07-20T06:06:34;8.07;;;4.82;;
11414;SDS011;5763;42.714;23.244;2023-07-20T06:09:00;10.82;;;4.47;;
11414;SDS011;5763;42.714;23.244;2023-07-20T06:11:29;11.27;;;4.97;;
11414;SDS011;5763;42.714;23.244;2023-07-20T06:13:56;11.55;;;5.47;;
11414;SDS011;5763;42.714;23.244;2023-07-20T06:16:23;8.50;;;4.63;;
11414;SDS011;5763;42.714;23.244;2023-07-20T06:18:50;12.32;;;5.20;;
11414;SDS011;5763;42.714;23.244;2023-07-20T06:21:16;12.32;;;4.57;;
11414;SDS011;5763;42.714;23.244;2023-07-20T06:23:45;10.68;;;5.18;;
11414;SDS011;5763;42.714;23.244;2023-07-20T06:26:12;8.10;;;4.93;;
11414;SDS011;5763;42.714;23.244;2023-07-20T06:28:38;8.93;;;5.30;;
11414;SDS011;5763;42.714;23.244;2023-07-20T06:31:05;11.32;;;5.97;;
11414;SDS011;5763;42.714;23.244;2023-07-20T06:33:32;12.35;;;5.07;;
11414;SDS011;5763;42.714;23.244;2023-07-20T06:35:59;14.27;;;5.28;;
11414;SDS011;5763;42.714;23.244;2023-07-20T06:38:27;8.27;;;4.82;;
11414;SDS011;5763;42.714;23.244;2023-07-20T06:40:55;12.07;;;5.38;;
11414;SDS011;5763;42.714;23.244;2023-07-20T06:43:22;11.05;;;5.85;;
11414;SDS011;5763;42.714;23.244;2023-07-20T06:45:51;7.93;;;5.05;;
11414;SDS011;5763;42.714;23.244;2023-07-20T06:48:18;10.38;;;4.75;;
11414;SDS011;5763;42.714;23.244;2023-07-20T06:50:45;13.73;;;5.13;;
11414;SDS011;5763;42.714;23.244;2023-07-20T06:53:12;14.32;;;5.70;;
11414;SDS011;5763;42.714;23.244;2023-07-20T06:55:39;14.00;;;5.30;;
11414;SDS011;5763;42.714;23.244;2023-07-20T06:58:09;9.80;;;4.45;;
11414;SDS011;5763;42.714;23.244;2023-07-20T07:00:36;10.77;;;4.95;;
11414;SDS011;5763;42.714;23.244;2023-07-20T07:03:02;8.68;;;4.45;;
11414;SDS011;5763;42.714;23.244;2023-07-20T07:05:29;8.85;;;4.53;;
11414;SDS011;5763;42.714;23.244;2023-07-20T07:07:56;12.60;;;4.50;;
11414;SDS011;5763;42.714;23.244;2023-07-20T07:10:23;7.53;;;4.20;;
11414;SDS011;5763;42.714;23.244;2023-07-20T07:12:49;9.05;;;4.20;;
11414;SDS011;5763;42.714;23.244;2023-07-20T07:15:17;8.75;;;4.80;;
11414;SDS011;5763;42.714;23.244;2023-07-20T07:17:44;13.43;;;5.55;;
11414;SDS011;5763;42.714;23.244;2023-07-20T07:20:11;9.68;;;4.20;;
11414;SDS011;5763;42.714;23.244;2023-07-20T07:22:38;6.85;;;3.92;;
11414;SDS011;5763;42.714;23.244;2023-07-20T07:25:05;12.95;;;4.22;;
11414;SDS011;5763;42.714;23.244;2023-07-20T07:27:32;8.40;;;3.90;;
11414;SDS011;5763;42.714;23.244;2023-07-20T07:29:59;7.05;;;3.95;;
11414;SDS011;5763;42.714;23.244;2023-07-20T07:32:28;10.77;;;4.25;;
11414;SDS011;5763;42.714;23.244;2023-07-20T07:34:54;8.98;;;3.97;;
11414;SDS011;5763;42.714;23.244;2023-07-20T07:37:23;9.82;;;4.32;;
11414;SDS011;5763;42.714;23.244;2023-07-20T07:39:50;10.18;;;4.20;;
11414;SDS011;5763;42.714;23.244;2023-07-20T07:42:16;12.15;;;4.30;;
11414;SDS011;5763;42.714;23.244;2023-07-20T07:44:43;8.75;;;3.83;;
11414;SDS011;5763;42.714;23.244;2023-07-20T07:47:10;8.40;;;4.25;;
11414;SDS011;5763;42.714;23.244;2023-07-20T07:49:39;8.82;;;3.92;;
11414;SDS011;5763;42.714;23.244;2023-07-20T07:52:05;8.88;;;4.07;;
11414;SDS011;5763;42.714;23.244;2023-07-20T07:54:32;8.20;;;4.25;;
11414;SDS011;5763;42.714;23.244;2023-07-20T07:56:59;12.98;;;5.32;;
11414;SDS011;5763;42.714;23.244;2023-07-20T07:59:26;6.82;;;3.75;;
11414;SDS011;5763;42.714;23.244;2023-07-20T08:01:53;9.38;;;4.40;;
11414;SDS011;5763;42.714;23.244;2023-07-20T08:04:20;6.57;;;3.92;;
11414;SDS011;5763;42.714;23.244;2023-07-20T08:06:48;8.57;;;3.90;;
11414;SDS011;5763;42.714;23.244;2023-07-20T08:09:15;7.70;;;3.92;;
11414;SDS011;5763;42.714;23.244;2023-07-20T08:11:42;10.38;;;3.38;;
11414;SDS011;5763;42.714;23.244;2023-07-20T08:14:08;6.32;;;2.95;;
11414;SDS011;5763;42.714;23.244;2023-07-20T08:16:35;6.47;;;3.10;;
11414;SDS011;5763;42.714;23.244;2023-07-20T08:19:02;6.70;;;2.97;;
11414;SDS011;5763;42.714;23.244;2023-07-20T08:21:28;8.57;;;3.45;;
11414;SDS011;5763;42.714;23.244;2023-07-20T08:23:56;8.43;;;3.08;;
11414;SDS011;5763;42.714;23.244;2023-07-20T08:26:23;5.45;;;2.50;;
11414;SDS011;5763;42.714;23.244;2023-07-20T08:28:50;7.90;;;3.17;;
11414;SDS011;5763;42.714;23.244;2023-07-20T08:31:17;6.47;;;2.95;;
11414;SDS011;5763;42.714;23.244;2023-07-20T08:33:43;8.95;;;3.13;;
11414;SDS011;5763;42.714;23.244;2023-07-20T08:36:10;6.13;;;2.78;;
11414;SDS011;5763;42.714;23.244;2023-07-20T08:38:37;7.88;;;2.88;;
11414;SDS011;5763;42.714;23.244;2023-07-20T08:41:05;6.00;;;2.70;;
11414;SDS011;5763;42.714;23.244;2023-07-20T08:43:31;6.40;;;2.63;;
11414;SDS011;5763;42.714;23.244;2023-07-20T08:46:00;10.38;;;2.75;;
11414;SDS011;5763;42.714;23.244;2023-07-20T08:48:27;9.85;;;2.90;;
11414;SDS011;5763;42.714;23.244;2023-07-20T08:50:56;10.55;;;3.10;;
11414;SDS011;5763;42.714;23.244;2023-07-20T08:53:25;6.03;;;2.88;;
11414;SDS011;5763;42.714;23.244;2023-07-20T08:55:53;8.05;;;3.10;;
11414;SDS011;5763;42.714;23.244;2023-07-20T08:58:21;6.85;;;3.10;;
11414;SDS011;5763;42.714;23.244;2023-07-20T09:00:51;7.40;;;2.85;;
11414;SDS011;5763;42.714;23.244;2023-07-20T09:03:20;5.90;;;2.15;;
11414;SDS011;5763;42.714;23.244;2023-07-20T09:05:47;3.90;;;2.30;;
11414;SDS011;5763;42.714;23.244;2023-07-20T09:08:15;5.22;;;2.55;;
11414;SDS011;5763;42.714;23.244;2023-07-20T09:10:42;5.55;;;2.47;;
11414;SDS011;5763;42.714;23.244;2023-07-20T09:13:08;8.05;;;2.70;;
11414;SDS011;5763;42.714;23.244;2023-07-20T09:15:36;4.82;;;2.40;;
11414;SDS011;5763;42.714;23.244;2023-07-20T09:18:03;6.00;;;2.88;;
11414;SDS011;5763;42.714;23.244;2023-07-20T09:20:31;7.93;;;2.75;;
11414;SDS011;5763;42.714;23.244;2023-07-20T09:22:59;5.65;;;2.40;;
11414;SDS011;5763;42.714;23.244;2023-07-20T09:25:26;8.32;;;2.58;;
11414;SDS011;5763;42.714;23.244;2023-07-20T09:27:53;6.10;;;2.95;;
11414;SDS011;5763;42.714;23.244;2023-07-20T09:30:21;6.22;;;3.10;;
11414;SDS011;5763;42.714;23.244;2023-07-20T09:32:53;5.68;;;2.97;;
11414;SDS011;5763;42.714;23.244;2023-07-20T09:35:20;5.90;;;2.60;;
11414;SDS011;5763;42.714;23.244;2023-07-20T09:37:49;7.72;;;3.33;;
11414;SDS011;5763;42.714;23.244;2023-07-20T09:40:18;4.93;;;2.53;;
11414;SDS011;5763;42.714;23.244;2023-07-20T09:42:45;6.22;;;2.30;;
11414;SDS011;5763;42.714;23.244;2023-07-20T09:45:12;4.72;;;2.22;;
11414;SDS011;5763;42.714;23.244;2023-07-20T09:47:39;4.90;;;2.22;;
11414;SDS011;5763;42.714;23.244;2023-07-20T09:50:08;5.65;;;2.83;;
11414;SDS011;5763;42.714;23.244;2023-07-20T09:52:38;6.65;;;2.20;;
11414;SDS011;5763;42.714;23.244;2023-07-20T09:55:06;5.18;;;3.20;;
11414;SDS011;5763;42.714;23.244;2023-07-20T09:57:34;6.32;;;2.40;;
11414;SDS011;5763;42.714;23.244;2023-07-20T10:00:02;4.50;;;2.58;;
11414;SDS011;5763;42.714;23.244;2023-07-20T10:02:34;7.53;;;2.40;;
11414;SDS011;5763;42.714;23.244;2023-07-20T10:05:09;6.72;;;2.15;;
11414;SDS011;5763;42.714;23.244;2023-07-20T10:07:40;3.88;;;1.90;;
11414;SDS011;5763;42.714;23.244;2023-07-20T10:10:11;5.45;;;2.55;;
11414;SDS011;5763;42.714;23.244;2023-07-20T10:12:40;6.63;;;2.95;;
11414;SDS011;5763;42.714;23.244;2023-07-20T10:15:10;5.95;;;2.42;;
11414;SDS011;5763;42.714;23.244;2023-07-20T10:17:42;2.80;;;2.35;;
11414;SDS011;5763;42.714;23.244;2023-07-20T10:20:17;5.68;;;2.10;;
11414;SDS011;5763;42.714;23.244;2023-07-20T10:22:47;3.47;;;1.88;;
11414;SDS011;5763;42.714;23.244;2023-07-20T10:25:14;3.63;;;2.35;;
11414;SDS011;5763;42.714;23.244;2023-07-20T10:27:43;5.95;;;1.98;;
11414;SDS011;5763;42.714;23.244;2023-07-20T10:30:10;7.22;;;2.30;;
11414;SDS011;5763;42.714;23.244;2023-07-20T10:32:38;3.47;;;1.92;;
11414;SDS011;5763;42.714;23.244;2023-07-20T10:35:11;4.50;;;2.17;;
11414;SDS011;5763;42.714;23.244;2023-07-20T10:37:48;5.90;;;2.60;;
11414;SDS011;5763;42.714;23.244;2023-07-20T10:40:29;6.57;;;2.55;;
11414;SDS011;5763;42.714;23.244;2023-07-20T10:43:01;9.20;;;3.42;;
11414;SDS011;5763;42.714;23.244;2023-07-20T10:45:36;5.13;;;2.35;;
11414;SDS011;5763;42.714;23.244;2023-07-20T10:48:05;6.68;;;2.22;;
11414;SDS011;5763;42.714;23.244;2023-07-20T10:50:39;4.95;;;2.10;;
11414;SDS011;5763;42.714;23.244;2023-07-20T10:53:11;6.25;;;2.42;;
11414;SDS011;5763;42.714;23.244;2023-07-20T10:55:42;4.28;;;2.55;;
11414;SDS011;5763;42.714;23.244;2023-07-20T10:58:11;5.40;;;2.40;;
11414;SDS011;5763;42.714;23.244;2023-07-20T11:01:00;6.22;;;2.53;;
11414;SDS011;5763;42.714;23.244;2023-07-20T11:03:28;4.25;;;2.20;;
11414;SDS011;5763;42.714;23.244;2023-07-20T11:05:56;4.47;;;2.28;;
11414;SDS011;5763;42.714;23.244;2023-07-20T11:08:39;6.90;;;2.42;;
11414;SDS011;5763;42.714;23.244;2023-07-20T11:11:23;6.70;;;2.72;;
11414;SDS011;5763;42.714;23.244;2023-07-20T11:13:54;3.72;;;2.42;;
11414;SDS011;5763;42.714;23.244;2023-07-20T11:16:35;4.68;;;1.90;;
11414;SDS011;5763;42.714;23.244;2023-07-20T11:19:03;4.65;;;2.47;;
11414;SDS011;5763;42.714;23.244;2023-07-20T11:21:30;7.30;;;2.67;;
11414;SDS011;5763;42.714;23.244;2023-07-20T11:24:04;4.13;;;2.53;;
11414;SDS011;5763;42.714;23.244;2023-07-20T11:26:39;5.40;;;2.55;;
11414;SDS011;5763;42.714;23.244;2023-07-20T11:29:06;8.45;;;2.85;;
11414;SDS011;5763;42.714;23.244;2023-07-20T11:31:34;6.30;;;2.90;;
11414;SDS011;5763;42.714;23.244;2023-07-20T11:34:02;4.78;;;2.67;;
11414;SDS011;5763;42.714;23.244;2023-07-20T11:36:29;6.43;;;2.60;;
11414;SDS011;5763;42.714;23.244;2023-07-20T11:38:56;4.03;;;2.63;;
11414;SDS011;5763;42.714;23.244;2023-07-20T11:41:25;9.18;;;2.88;;
11414;SDS011;5763;42.714;23.244;2023-07-20T11:43:52;3.95;;;2.65;;
11414;SDS011;5763;42.714;23.244;2023-07-20T11:46:20;7.35;;;3.25;;
11414;SDS011;5763;42.714;23.244;2023-07-20T11:48:47;5.40;;;2.63;;
11414;SDS011;5763;42.714;23.244;2023-07-20T11:51:14;6.03;;;3.40;;
11414;SDS011;5763;42.714;23.244;2023-07-20T11:53:42;5.63;;;3.15;;
11414;SDS011;5763;42.714;23.244;2023-07-20T11:56:11;5.93;;;3.45;;
11414;SDS011;5763;42.714;23.244;2023-07-20T11:58:43;6.90;;;2.85;;
11414;SDS011;5763;42.714;23.244;2023-07-20T12:01:11;6.57;;;2.97;;
11414;SDS011;5763;42.714;23.244;2023-07-20T12:03:38;5.93;;;3.00;;
11414;SDS011;5763;42.714;23.244;2023-07-20T12:06:08;5.20;;;3.03;;
11414;SDS011;5763;42.714;23.244;2023-07-20T12:08:37;8.20;;;3.47;;
11414;SDS011;5763;42.714;23.244;2023-07-20T12:11:05;6.88;;;2.90;;
11414;SDS011;5763;42.714;23.244;2023-07-20T12:13:36;8.13;;;3.70;;
11414;SDS011;5763;42.714;23.244;2023-07-20T12:16:10;5.63;;;2.83;;
11414;SDS011;5763;42.714;23.244;2023-07-20T12:18:37;5.13;;;2.45;;
11414;SDS011;5763;42.714;23.244;2023-07-20T12:21:05;4.32;;;2.55;;
11414;SDS011;5763;42.714;23.244;2023-07-20T12:23:34;6.50;;;2.58;;
11414;SDS011;5763;42.714;23.244;2023-07-20T12:26:03;5.50;;;2.78;;
11414;SDS011;5763;42.714;23.244;2023-07-20T12:28:32;7.75;;;3.50;;
11414;SDS011;5763;42.714;23.244;2023-07-20T12:30:58;3.95;;;3.05;;
11414;SDS011;5763;42.714;23.244;2023-07-20T12:33:27;7.07;;;2.80;;
11414;SDS011;5763;42.714;23.244;2023-07-20T12:35:54;4.85;;;2.75;;
11414;SDS011;5763;42.714;23.244;2023-07-20T12:38:23;5.93;;;2.97;;
11414;SDS011;5763;42.714;23.244;2023-07-20T12:40:50;6.20;;;3.20;;
11414;SDS011;5763;42.714;23.244;2023-07-20T12:43:17;6.00;;;2.53;;
11414;SDS011;5763;42.714;23.244;2023-07-20T12:45:43;4.78;;;2.60;;
11414;SDS011;5763;42.714;23.244;2023-07-20T12:48:10;5.82;;;2.47;;
11414;SDS011;5763;42.714;23.244;2023-07-20T12:50:38;4.53;;;2.95;;
11414;SDS011;5763;42.714;23.244;2023-07-20T12:53:05;4.57;;;2.88;;
11414;SDS011;5763;42.714;23.244;2023-07-20T12:55:32;5.20;;;3.00;;
11414;SDS011;5763;42.714;23.244;2023-07-20T12:57:58;5.55;;;2.95;;
11414;SDS011;5763;42.714;23.244;2023-07-20T13:00:25;7.63;;;2.85;;
11414;SDS011;5763;42.714;23.244;2023-07-20T13:02:52;5.47;;;2.72;;
11414;SDS011;5763;42.714;23.244;2023-07-20T13:05:18;6.78;;;2.78;;
11414;SDS011;5763;42.714;23.244;2023-07-20T13:07:47;5.63;;;2.70;;
11414;SDS011;5763;42.714;23.244;2023-07-20T13:10:13;6.35;;;2.88;;
11414;SDS011;5763;42.714;23.244;2023-07-20T13:12:40;6.50;;;2.97;;
11414;SDS011;5763;42.714;23.244;2023-07-20T13:15:07;5.10;;;2.55;;
11414;SDS011;5763;42.714;23.244;2023-07-20T13:17:36;5.85;;;2.80;;
11414;SDS011;5763;42.714;23.244;2023-07-20T13:20:04;8.05;;;2.88;;
11414;SDS011;5763;42.714;23.244;2023-07-20T13:22:32;9.07;;;2.88;;
11414;SDS011;5763;42.714;23.244;2023-07-20T13:25:01;4.88;;;2.80;;
11414;SDS011;5763;42.714;23.244;2023-07-20T13:27:28;5.65;;;2.50;;
11414;SDS011;5763;42.714;23.244;2023-07-20T13:29:56;9.27;;;3.28;;
11414;SDS011;5763;42.714;23.244;2023-07-20T13:32:24;5.72;;;2.88;;
11414;SDS011;5763;42.714;23.244;2023-07-20T13:34:50;10.05;;;3.22;;
11414;SDS011;5763;42.714;23.244;2023-07-20T13:37:17;9.18;;;2.60;;
11414;SDS011;5763;42.714;23.244;2023-07-20T13:39:44;4.07;;;2.45;;
11414;SDS011;5763;42.714;23.244;2023-07-20T13:42:12;8.30;;;2.60;;
11414;SDS011;5763;42.714;23.244;2023-07-20T13:44:38;5.82;;;2.53;;
11414;SDS011;5763;42.714;23.244;2023-07-20T13:47:05;7.05;;;2.40;;
11414;SDS011;5763;42.714;23.244;2023-07-20T13:49:32;6.38;;;2.80;;
11414;SDS011;5763;42.714;23.244;2023-07-20T13:51:59;6.68;;;2.40;;
11414;SDS011;5763;42.714;23.244;2023-07-20T13:54:26;4.82;;;2.78;;
11414;SDS011;5763;42.714;23.244;2023-07-20T13:56:53;7.55;;;2.50;;
11414;SDS011;5763;42.714;23.244;2023-07-20T13:59:21;5.40;;;2.58;;
11414;SDS011;5763;42.714;23.244;2023-07-20T14:01:47;5.38;;;2.20;;
11414;SDS011;5763;42.714;23.244;2023-07-20T14:04:14;5.78;;;2.65;;
11414;SDS011;5763;42.714;23.244;2023-07-20T14:06:42;4.90;;;2.65;;
11414;SDS011;5763;42.714;23.244;2023-07-20T14:09:09;5.80;;;2.90;;
11414;SDS011;5763;42.714;23.244;2023-07-20T14:11:35;11.05;;;2.40;;
11414;SDS011;5763;42.714;23.244;2023-07-20T14:14:02;9.13;;;2.60;;
11414;SDS011;5763;42.714;23.244;2023-07-20T14:16:30;6.97;;;2.63;;
11414;SDS011;5763;42.714;23.244;2023-07-20T14:18:57;6.20;;;2.83;;
11414;SDS011;5763;42.714;23.244;2023-07-20T14:21:24;6.38;;;2.95;;
11414;SDS011;5763;42.714;23.244;2023-07-20T14:23:51;6.88;;;2.70;;
11414;SDS011;5763;42.714;23.244;2023-07-20T14:26:19;5.63;;;2.67;;
11414;SDS011;5763;42.714;23.244;2023-07-20T14:28:46;7.13;;;3.63;;
11414;SDS011;5763;42.714;23.244;2023-07-20T14:31:12;8.45;;;3.20;;
11414;SDS011;5763;42.714;23.244;2023-07-20T14:33:40;7.60;;;2.50;;
11414;SDS011;5763;42.714;23.244;2023-07-20T14:36:07;8.98;;;2.70;;
11414;SDS011;5763;42.714;23.244;2023-07-20T14:38:34;5.38;;;2.50;;
11414;SDS011;5763;42.714;23.244;2023-07-20T14:41:01;6.68;;;2.70;;
11414;SDS011;5763;42.714;23.244;2023-07-20T14:43:28;6.97;;;4.93;;
11414;SDS011;5763;42.714;23.244;2023-07-20T14:45:55;6.57;;;3.53;;
11414;SDS011;5763;42.714;23.244;2023-07-20T14:48:22;6.75;;;3.38;;
11414;SDS011;5763;42.714;23.244;2023-07-20T14:50:50;9.80;;;3.38;;